sensor_id;sensor_type;location;lat;lon;timestamp;P1;durP1;ratioP1;P2;durP2;ratioP2
17890;SDS011;9071;48.220;14.480;2023-03-23T00:02:00;19.67;;;12.43;;
17890;SDS011;9071;48.220;14.480;2023-03-23T00:07:02;22.70;;;12.83;;
17890;SDS011;9071;48.220;14.480;2023-03-23T00:12:06;20.53;;;11.60;;
17890;SDS011;9071;48.220;14.480;2023-03-23T00:17:09;22.93;;;12.23;;
17890;SDS011;9071;48.220;14.480;2023-03-23T00:22:14;24.93;;;13.70;;
17890;SDS011;9071;48.220;14.480;2023-03-23T00:27:21;21.73;;;12.43;;
17890;SDS011;9071;48.220;14.480;2023-03-23T00:32:24;23.33;;;12.87;;
17890;SDS011;9071;48.220;14.480;2023-03-23T00:37:28;20.90;;;12.07;;
17890;SDS011;9071;48.220;14.480;2023-03-23T00:42:32;20.93;;;12.27;;
17890;SDS011;9071;48.220;14.480;2023-03-23T00:47:37;18.97;;;12.30;;
17890;SDS011;9071;48.220;14.480;2023-03-23T00:52:40;22.37;;;13.50;;
17890;SDS011;9071;48.220;14.480;2023-03-23T00:57:44;21.07;;;12.67;;
17890;SDS011;9071;48.220;14.480;2023-03-23T01:02:46;20.73;;;11.90;;
17890;SDS011;9071;48.220;14.480;2023-03-23T01:07:48;21.57;;;12.17;;
17890;SDS011;9071;48.220;14.480;2023-03-23T01:12:52;18.53;;;11.80;;
17890;SDS011;9071;48.220;14.480;2023-03-23T01:17:55;19.70;;;12.97;;
17890;SDS011;9071;48.220;14.480;2023-03-23T01:22:57;22.37;;;12.80;;
17890;SDS011;9071;48.220;14.480;2023-03-23T01:28:02;22.40;;;13.03;;
17890;SDS011;9071;48.220;14.480;2023-03-23T01:33:04;26.93;;;13.40;;
17890;SDS011;9071;48.220;14.480;2023-03-23T01:38:06;24.47;;;14.23;;
17890;SDS011;9071;48.220;14.480;2023-03-23T01:43:11;24.33;;;13.80;;
17890;SDS011;9071;48.220;14.480;2023-03-23T01:48:16;27.80;;;15.27;;
17890;SDS011;9071;48.220;14.480;2023-03-23T01:53:20;23.73;;;14.40;;
17890;SDS011;9071;48.220;14.480;2023-03-23T01:58:29;24.37;;;14.10;;
17890;SDS011;9071;48.220;14.480;2023-03-23T02:03:34;21.80;;;14.00;;
17890;SDS011;9071;48.220;14.480;2023-03-23T02:08:38;26.97;;;14.37;;
17890;SDS011;9071;48.220;14.480;2023-03-23T02:13:45;22.73;;;14.50;;
17890;SDS011;9071;48.220;14.480;2023-03-23T02:18:53;22.50;;;13.53;;
17890;SDS011;9071;48.220;14.480;2023-03-23T02:24:10;29.47;;;14.20;;
17890;SDS011;9071;48.220;14.480;2023-03-23T02:29:48;21.70;;;13.13;;
17890;SDS011;9071;48.220;14.480;2023-03-23T02:35:12;24.03;;;13.13;;
17890;SDS011;9071;48.220;14.480;2023-03-23T02:40:21;28.90;;;14.63;;
17890;SDS011;9071;48.220;14.480;2023-03-23T02:45:27;22.43;;;13.40;;
17890;SDS011;9071;48.220;14.480;2023-03-23T02:50:32;25.97;;;13.77;;
17890;SDS011;9071;48.220;14.480;2023-03-23T02:55:36;20.37;;;13.27;;
17890;SDS011;9071;48.220;14.480;2023-03-23T03:00:40;24.23;;;13.90;;
17890;SDS011;9071;48.220;14.480;2023-03-23T03:05:44;22.17;;;13.63;;
17890;SDS011;9071;48.220;14.480;2023-03-23T03:10:54;23.67;;;15.27;;
17890;SDS011;9071;48.220;14.480;2023-03-23T03:16:00;25.50;;;14.70;;
17890;SDS011;9071;48.220;14.480;2023-03-23T03:21:10;24.03;;;12.80;;
17890;SDS011;9071;48.220;14.480;2023-03-23T03:26:14;25.77;;;15.37;;
17890;SDS011;9071;48.220;14.480;2023-03-23T03:31:21;26.03;;;14.47;;
17890;SDS011;9071;48.220;14.480;2023-03-23T03:36:29;26.17;;;14.50;;
17890;SDS011;9071;48.220;14.480;2023-03-23T03:41:35;22.97;;;14.53;;
17890;SDS011;9071;48.220;14.480;2023-03-23T03:46:38;22.37;;;14.27;;
17890;SDS011;9071;48.220;14.480;2023-03-23T03:51:41;22.30;;;14.00;;
17890;SDS011;9071;48.220;14.480;2023-03-23T03:56:44;23.33;;;14.90;;
17890;SDS011;9071;48.220;14.480;2023-03-23T04:01:46;23.13;;;13.70;;
17890;SDS011;9071;48.220;14.480;2023-03-23T04:06:55;24.10;;;13.20;;
17890;SDS011;9071;48.220;14.480;2023-03-23T04:11:57;18.93;;;12.50;;
17890;SDS011;9071;48.220;14.480;2023-03-23T04:16:59;20.70;;;12.60;;
17890;SDS011;9071;48.220;14.480;2023-03-23T04:22:04;23.40;;;13.10;;
17890;SDS011;9071;48.220;14.480;2023-03-23T04:27:07;18.93;;;13.10;;
17890;SDS011;9071;48.220;14.480;2023-03-23T04:32:09;20.10;;;12.87;;
17890;SDS011;9071;48.220;14.480;2023-03-23T04:37:12;17.23;;;12.43;;
17890;SDS011;9071;48.220;14.480;2023-03-23T04:42:14;21.77;;;13.43;;
17890;SDS011;9071;48.220;14.480;2023-03-23T04:47:17;21.30;;;13.80;;
17890;SDS011;9071;48.220;14.480;2023-03-23T04:52:20;24.57;;;13.83;;
17890;SDS011;9071;48.220;14.480;2023-03-23T04:57:25;21.33;;;13.53;;
17890;SDS011;9071;48.220;14.480;2023-03-23T05:02:28;25.40;;;15.33;;
17890;SDS011;9071;48.220;14.480;2023-03-23T05:07:32;20.87;;;14.33;;
17890;SDS011;9071;48.220;14.480;2023-03-23T05:12:35;22.70;;;14.80;;
17890;SDS011;9071;48.220;14.480;2023-03-23T05:17:38;20.77;;;14.73;;
17890;SDS011;9071;48.220;14.480;2023-03-23T05:22:45;20.63;;;14.70;;
17890;SDS011;9071;48.220;14.480;2023-03-23T05:27:48;25.07;;;16.10;;
17890;SDS011;9071;48.220;14.480;2023-03-23T05:32:52;26.27;;;16.13;;
17890;SDS011;9071;48.220;14.480;2023-03-23T05:37:56;20.10;;;14.77;;
17890;SDS011;9071;48.220;14.480;2023-03-23T05:42:58;30.33;;;19.07;;
17890;SDS011;9071;48.220;14.480;2023-03-23T05:48:01;28.87;;;17.70;;
17890;SDS011;9071;48.220;14.480;2023-03-23T05:53:04;30.83;;;18.30;;
17890;SDS011;9071;48.220;14.480;2023-03-23T05:58:06;22.67;;;17.60;;
17890;SDS011;9071;48.220;14.480;2023-03-23T06:03:09;23.23;;;15.07;;
17890;SDS011;9071;48.220;14.480;2023-03-23T06:08:13;29.57;;;19.13;;
17890;SDS011;9071;48.220;14.480;2023-03-23T06:13:15;28.13;;;16.23;;
17890;SDS011;9071;48.220;14.480;2023-03-23T06:18:17;27.87;;;15.50;;
17890;SDS011;9071;48.220;14.480;2023-03-23T06:23:22;30.57;;;18.13;;
17890;SDS011;9071;48.220;14.480;2023-03-23T06:28:24;21.63;;;14.30;;
17890;SDS011;9071;48.220;14.480;2023-03-23T06:33:26;22.07;;;14.53;;
17890;SDS011;9071;48.220;14.480;2023-03-23T06:38:30;23.60;;;14.70;;
17890;SDS011;9071;48.220;14.480;2023-03-23T06:43:32;21.63;;;13.97;;
17890;SDS011;9071;48.220;14.480;2023-03-23T06:48:36;23.53;;;13.40;;
17890;SDS011;9071;48.220;14.480;2023-03-23T06:53:39;17.97;;;12.00;;
17890;SDS011;9071;48.220;14.480;2023-03-23T06:58:41;19.63;;;11.80;;
17890;SDS011;9071;48.220;14.480;2023-03-23T07:03:45;18.63;;;11.27;;
17890;SDS011;9071;48.220;14.480;2023-03-23T07:08:50;18.77;;;11.23;;
17890;SDS011;9071;48.220;14.480;2023-03-23T07:13:52;17.57;;;11.13;;
17890;SDS011;9071;48.220;14.480;2023-03-23T07:18:54;19.17;;;12.43;;
17890;SDS011;9071;48.220;14.480;2023-03-23T07:23:58;20.67;;;13.17;;
17890;SDS011;9071;48.220;14.480;2023-03-23T07:29:00;20.80;;;12.53;;
17890;SDS011;9071;48.220;14.480;2023-03-23T07:34:02;14.63;;;10.83;;
17890;SDS011;9071;48.220;14.480;2023-03-23T07:39:07;18.43;;;10.07;;
17890;SDS011;9071;48.220;14.480;2023-03-23T07:44:09;17.20;;;10.27;;
17890;SDS011;9071;48.220;14.480;2023-03-23T07:49:11;15.73;;;8.97;;
17890;SDS011;9071;48.220;14.480;2023-03-23T07:54:15;13.67;;;9.03;;
17890;SDS011;9071;48.220;14.480;2023-03-23T07:59:17;18.50;;;10.60;;
17890;SDS011;9071;48.220;14.480;2023-03-23T08:04:20;14.15;;;10.02;;
17890;SDS011;9071;48.220;14.480;2023-03-23T08:09:24;14.77;;;9.38;;
17890;SDS011;9071;48.220;14.480;2023-03-23T08:14:26;19.20;;;9.23;;
17890;SDS011;9071;48.220;14.480;2023-03-23T08:19:28;20.38;;;9.95;;
17890;SDS011;9071;48.220;14.480;2023-03-23T08:24:32;16.52;;;10.27;;
17890;SDS011;9071;48.220;14.480;2023-03-23T08:29:35;15.57;;;10.68;;
17890;SDS011;9071;48.220;14.480;2023-03-23T08:34:38;16.20;;;9.90;;
17890;SDS011;9071;48.220;14.480;2023-03-23T08:39:43;17.73;;;10.50;;
17890;SDS011;9071;48.220;14.480;2023-03-23T08:44:45;20.45;;;10.88;;
17890;SDS011;9071;48.220;14.480;2023-03-23T08:49:48;15.85;;;9.05;;
17890;SDS011;9071;48.220;14.480;2023-03-23T08:54:54;17.98;;;9.55;;
17890;SDS011;9071;48.220;14.480;2023-03-23T08:59:57;14.90;;;9.15;;
17890;SDS011;9071;48.220;14.480;2023-03-23T09:05:02;12.65;;;9.48;;
17890;SDS011;9071;48.220;14.480;2023-03-23T09:10:07;15.55;;;9.73;;
17890;SDS011;9071;48.220;14.480;2023-03-23T09:15:14;18.20;;;10.23;;
17890;SDS011;9071;48.220;14.480;2023-03-23T09:20:18;19.50;;;10.02;;
17890;SDS011;9071;48.220;14.480;2023-03-23T09:25:24;18.75;;;10.88;;
17890;SDS011;9071;48.220;14.480;2023-03-23T09:30:29;16.83;;;10.38;;
17890;SDS011;9071;48.220;14.480;2023-03-23T09:35:34;16.42;;;9.85;;
17890;SDS011;9071;48.220;14.480;2023-03-23T09:40:42;13.05;;;8.77;;
17890;SDS011;9071;48.220;14.480;2023-03-23T09:45:51;14.27;;;8.73;;
17890;SDS011;9071;48.220;14.480;2023-03-23T09:51:00;16.23;;;8.98;;
17890;SDS011;9071;48.220;14.480;2023-03-23T09:56:08;17.77;;;9.02;;
17890;SDS011;9071;48.220;14.480;2023-03-23T10:01:14;18.45;;;9.85;;
17890;SDS011;9071;48.220;14.480;2023-03-23T10:06:21;15.25;;;10.45;;
17890;SDS011;9071;48.220;14.480;2023-03-23T10:11:27;15.15;;;10.18;;
17890;SDS011;9071;48.220;14.480;2023-03-23T10:16:37;21.42;;;11.60;;
17890;SDS011;9071;48.220;14.480;2023-03-23T10:21:43;16.23;;;10.45;;
17890;SDS011;9071;48.220;14.480;2023-03-23T10:26:52;16.25;;;9.73;;
17890;SDS011;9071;48.220;14.480;2023-03-23T10:32:01;17.95;;;10.05;;
17890;SDS011;9071;48.220;14.480;2023-03-23T10:37:12;13.05;;;10.68;;
17890;SDS011;9071;48.220;14.480;2023-03-23T10:42:25;18.30;;;11.52;;
17890;SDS011;9071;48.220;14.480;2023-03-23T10:47:29;14.88;;;11.25;;
17890;SDS011;9071;48.220;14.480;2023-03-23T10:52:33;18.58;;;12.48;;
17890;SDS011;9071;48.220;14.480;2023-03-23T10:57:39;20.25;;;10.65;;
17890;SDS011;9071;48.220;14.480;2023-03-23T11:02:43;16.05;;;10.20;;
17890;SDS011;9071;48.220;14.480;2023-03-23T11:07:50;14.35;;;10.35;;
17890;SDS011;9071;48.220;14.480;2023-03-23T11:12:57;18.25;;;10.57;;
17890;SDS011;9071;48.220;14.480;2023-03-23T11:18:01;14.27;;;10.52;;
17890;SDS011;9071;48.220;14.480;2023-03-23T11:23:08;14.90;;;9.70;;
17890;SDS011;9071;48.220;14.480;2023-03-23T11:28:13;12.82;;;8.50;;
17890;SDS011;9071;48.220;14.480;2023-03-23T11:33:15;13.20;;;8.15;;
17890;SDS011;9071;48.220;14.480;2023-03-23T11:38:20;17.90;;;9.40;;
17890;SDS011;9071;48.220;14.480;2023-03-23T11:43:27;18.10;;;9.00;;
17890;SDS011;9071;48.220;14.480;2023-03-23T11:48:33;14.25;;;8.77;;
17890;SDS011;9071;48.220;14.480;2023-03-23T11:53:41;15.73;;;8.98;;
17890;SDS011;9071;48.220;14.480;2023-03-23T11:58:50;17.33;;;8.68;;
17890;SDS011;9071;48.220;14.480;2023-03-23T12:09:28;17.88;;;9.25;;
17890;SDS011;9071;48.220;14.480;2023-03-23T12:14:44;16.92;;;9.27;;
17890;SDS011;9071;48.220;14.480;2023-03-23T12:19:58;15.18;;;9.05;;
17890;SDS011;9071;48.220;14.480;2023-03-23T12:25:16;16.20;;;8.75;;
17890;SDS011;9071;48.220;14.480;2023-03-23T12:30:34;18.48;;;10.18;;
17890;SDS011;9071;48.220;14.480;2023-03-23T12:35:46;14.13;;;9.18;;
17890;SDS011;9071;48.220;14.480;2023-03-23T12:41:00;13.70;;;8.70;;
17890;SDS011;9071;48.220;14.480;2023-03-23T12:46:16;18.13;;;8.63;;
17890;SDS011;9071;48.220;14.480;2023-03-23T12:51:30;28.95;;;15.10;;
17890;SDS011;9071;48.220;14.480;2023-03-23T12:56:37;16.48;;;9.45;;
17890;SDS011;9071;48.220;14.480;2023-03-23T13:01:43;13.45;;;8.85;;
17890;SDS011;9071;48.220;14.480;2023-03-23T13:06:48;16.67;;;8.80;;
17890;SDS011;9071;48.220;14.480;2023-03-23T13:11:51;13.43;;;8.50;;
17890;SDS011;9071;48.220;14.480;2023-03-23T13:16:58;11.60;;;7.97;;
17890;SDS011;9071;48.220;14.480;2023-03-23T13:22:07;13.63;;;7.20;;
17890;SDS011;9071;48.220;14.480;2023-03-23T13:27:14;21.67;;;8.90;;
17890;SDS011;9071;48.220;14.480;2023-03-23T13:32:19;11.65;;;6.57;;
17890;SDS011;9071;48.220;14.480;2023-03-23T13:37:22;13.65;;;6.97;;
17890;SDS011;9071;48.220;14.480;2023-03-23T13:42:26;13.02;;;6.50;;
17890;SDS011;9071;48.220;14.480;2023-03-23T13:47:37;14.63;;;7.60;;
17890;SDS011;9071;48.220;14.480;2023-03-23T13:52:46;15.07;;;7.00;;
17890;SDS011;9071;48.220;14.480;2023-03-23T13:57:53;11.50;;;6.78;;
17890;SDS011;9071;48.220;14.480;2023-03-23T14:03:02;10.90;;;7.05;;
17890;SDS011;9071;48.220;14.480;2023-03-23T14:08:21;10.80;;;6.20;;
17890;SDS011;9071;48.220;14.480;2023-03-23T14:13:32;11.43;;;6.72;;
17890;SDS011;9071;48.220;14.480;2023-03-23T14:18:49;14.68;;;6.15;;
17890;SDS011;9071;48.220;14.480;2023-03-23T14:23:54;11.13;;;6.15;;
17890;SDS011;9071;48.220;14.480;2023-03-23T14:28:57;12.13;;;5.35;;
17890;SDS011;9071;48.220;14.480;2023-03-23T14:34:03;9.88;;;5.32;;
17890;SDS011;9071;48.220;14.480;2023-03-23T14:39:14;10.95;;;5.65;;
17890;SDS011;9071;48.220;14.480;2023-03-23T14:44:21;6.35;;;4.65;;
17890;SDS011;9071;48.220;14.480;2023-03-23T14:49:29;6.32;;;4.47;;
17890;SDS011;9071;48.220;14.480;2023-03-23T14:54:33;7.18;;;4.90;;
17890;SDS011;9071;48.220;14.480;2023-03-23T14:59:35;11.02;;;5.72;;
17890;SDS011;9071;48.220;14.480;2023-03-23T15:04:39;10.60;;;5.35;;
17890;SDS011;9071;48.220;14.480;2023-03-23T15:09:44;17.08;;;6.38;;
17890;SDS011;9071;48.220;14.480;2023-03-23T15:14:49;10.27;;;5.53;;
17890;SDS011;9071;48.220;14.480;2023-03-23T15:19:56;11.05;;;6.53;;
17890;SDS011;9071;48.220;14.480;2023-03-23T15:25:02;11.73;;;5.43;;
17890;SDS011;9071;48.220;14.480;2023-03-23T15:30:13;8.40;;;4.93;;
17890;SDS011;9071;48.220;14.480;2023-03-23T15:35:19;8.02;;;4.55;;
17890;SDS011;9071;48.220;14.480;2023-03-23T15:40:25;9.80;;;5.25;;
17890;SDS011;9071;48.220;14.480;2023-03-23T15:45:28;8.75;;;4.55;;
17890;SDS011;9071;48.220;14.480;2023-03-23T15:50:35;8.15;;;3.95;;
17890;SDS011;9071;48.220;14.480;2023-03-23T15:55:38;8.55;;;3.90;;
17890;SDS011;9071;48.220;14.480;2023-03-23T16:00:40;10.95;;;4.07;;
17890;SDS011;9071;48.220;14.480;2023-03-23T16:05:45;8.38;;;3.63;;
17890;SDS011;9071;48.220;14.480;2023-03-23T16:10:47;4.55;;;3.00;;
17890;SDS011;9071;48.220;14.480;2023-03-23T16:15:49;7.93;;;3.40;;
17890;SDS011;9071;48.220;14.480;2023-03-23T16:20:53;5.32;;;2.80;;
17890;SDS011;9071;48.220;14.480;2023-03-23T16:25:55;4.50;;;3.00;;
17890;SDS011;9071;48.220;14.480;2023-03-23T16:30:57;5.72;;;3.00;;
17890;SDS011;9071;48.220;14.480;2023-03-23T16:36:01;10.45;;;3.40;;
17890;SDS011;9071;48.220;14.480;2023-03-23T16:41:04;5.35;;;2.90;;
17890;SDS011;9071;48.220;14.480;2023-03-23T16:46:08;5.18;;;3.30;;
17890;SDS011;9071;48.220;14.480;2023-03-23T16:51:13;4.93;;;2.90;;
17890;SDS011;9071;48.220;14.480;2023-03-23T16:56:15;4.25;;;3.30;;
17890;SDS011;9071;48.220;14.480;2023-03-23T17:01:18;6.03;;;3.20;;
17890;SDS011;9071;48.220;14.480;2023-03-23T17:06:22;6.15;;;3.55;;
17890;SDS011;9071;48.220;14.480;2023-03-23T17:11:25;5.63;;;2.83;;
17890;SDS011;9071;48.220;14.480;2023-03-23T17:16:27;5.38;;;3.00;;
17890;SDS011;9071;48.220;14.480;2023-03-23T17:21:31;7.95;;;3.05;;
17890;SDS011;9071;48.220;14.480;2023-03-23T17:26:33;7.72;;;3.17;;
17890;SDS011;9071;48.220;14.480;2023-03-23T17:31:36;5.93;;;3.30;;
17890;SDS011;9071;48.220;14.480;2023-03-23T17:36:39;7.15;;;4.05;;
17890;SDS011;9071;48.220;14.480;2023-03-23T17:41:42;8.82;;;3.22;;
17890;SDS011;9071;48.220;14.480;2023-03-23T17:46:45;17.00;;;4.10;;
17890;SDS011;9071;48.220;14.480;2023-03-23T17:51:49;8.95;;;4.00;;
17890;SDS011;9071;48.220;14.480;2023-03-23T17:56:51;8.23;;;3.97;;
17890;SDS011;9071;48.220;14.480;2023-03-23T18:01:56;9.73;;;4.00;;
17890;SDS011;9071;48.220;14.480;2023-03-23T18:06:59;8.13;;;4.00;;
17890;SDS011;9071;48.220;14.480;2023-03-23T18:12:01;6.20;;;3.80;;
17890;SDS011;9071;48.220;14.480;2023-03-23T18:17:04;8.98;;;5.35;;
17890;SDS011;9071;48.220;14.480;2023-03-23T18:22:07;8.25;;;5.68;;
17890;SDS011;9071;48.220;14.480;2023-03-23T18:27:10;24.67;;;13.70;;
17890;SDS011;9071;48.220;14.480;2023-03-23T18:32:12;56.67;;;28.58;;
17890;SDS011;9071;48.220;14.480;2023-03-23T18:37:15;16.43;;;9.27;;
17890;SDS011;9071;48.220;14.480;2023-03-23T18:42:18;19.50;;;10.88;;
17890;SDS011;9071;48.220;14.480;2023-03-23T18:47:20;22.10;;;13.90;;
17890;SDS011;9071;48.220;14.480;2023-03-23T18:52:24;22.20;;;12.57;;
17890;SDS011;9071;48.220;14.480;2023-03-23T18:57:29;14.40;;;7.57;;
17890;SDS011;9071;48.220;14.480;2023-03-23T19:02:31;10.57;;;5.87;;
17890;SDS011;9071;48.220;14.480;2023-03-23T19:07:35;17.30;;;6.27;;
17890;SDS011;9071;48.220;14.480;2023-03-23T19:12:38;14.27;;;6.67;;
17890;SDS011;9071;48.220;14.480;2023-03-23T19:17:41;11.60;;;7.73;;
17890;SDS011;9071;48.220;14.480;2023-03-23T19:22:44;17.87;;;9.70;;
17890;SDS011;9071;48.220;14.480;2023-03-23T19:27:46;18.13;;;10.10;;
17890;SDS011;9071;48.220;14.480;2023-03-23T19:32:49;12.93;;;7.47;;
17890;SDS011;9071;48.220;14.480;2023-03-23T19:37:52;15.50;;;5.47;;
17890;SDS011;9071;48.220;14.480;2023-03-23T19:42:54;9.97;;;5.53;;
17890;SDS011;9071;48.220;14.480;2023-03-23T19:47:57;11.37;;;6.63;;
17890;SDS011;9071;48.220;14.480;2023-03-23T19:53:00;10.13;;;5.50;;
17890;SDS011;9071;48.220;14.480;2023-03-23T19:58:02;8.90;;;5.83;;
17890;SDS011;9071;48.220;14.480;2023-03-23T20:03:05;14.03;;;6.67;;
17890;SDS011;9071;48.220;14.480;2023-03-23T20:08:08;11.50;;;5.63;;
17890;SDS011;9071;48.220;14.480;2023-03-23T20:13:11;11.37;;;6.40;;
17890;SDS011;9071;48.220;14.480;2023-03-23T20:18:13;11.50;;;5.90;;
17890;SDS011;9071;48.220;14.480;2023-03-23T20:23:19;16.63;;;7.30;;
17890;SDS011;9071;48.220;14.480;2023-03-23T20:28:21;12.70;;;7.20;;
17890;SDS011;9071;48.220;14.480;2023-03-23T20:33:23;23.40;;;14.53;;
17890;SDS011;9071;48.220;14.480;2023-03-23T20:38:27;20.00;;;11.40;;
17890;SDS011;9071;48.220;14.480;2023-03-23T20:43:30;15.13;;;7.70;;
17890;SDS011;9071;48.220;14.480;2023-03-23T20:48:33;9.53;;;5.60;;
17890;SDS011;9071;48.220;14.480;2023-03-23T20:53:38;8.03;;;5.70;;
17890;SDS011;9071;48.220;14.480;2023-03-23T20:58:40;18.43;;;6.90;;
17890;SDS011;9071;48.220;14.480;2023-03-23T21:03:42;10.63;;;6.57;;
17890;SDS011;9071;48.220;14.480;2023-03-23T21:08:46;11.13;;;6.53;;
17890;SDS011;9071;48.220;14.480;2023-03-23T21:13:48;10.43;;;5.70;;
17890;SDS011;9071;48.220;14.480;2023-03-23T21:18:50;11.10;;;6.60;;
17890;SDS011;9071;48.220;14.480;2023-03-23T21:23:54;9.43;;;6.17;;
17890;SDS011;9071;48.220;14.480;2023-03-23T21:28:56;10.03;;;6.20;;
17890;SDS011;9071;48.220;14.480;2023-03-23T21:34:00;12.13;;;5.73;;
17890;SDS011;9071;48.220;14.480;2023-03-23T21:39:03;7.80;;;5.10;;
17890;SDS011;9071;48.220;14.480;2023-03-23T21:44:06;10.13;;;5.40;;
17890;SDS011;9071;48.220;14.480;2023-03-23T21:49:10;10.93;;;5.47;;
17890;SDS011;9071;48.220;14.480;2023-03-23T21:54:15;10.90;;;5.83;;
17890;SDS011;9071;48.220;14.480;2023-03-23T21:59:17;9.13;;;5.63;;
17890;SDS011;9071;48.220;14.480;2023-03-23T22:04:19;8.07;;;5.23;;
17890;SDS011;9071;48.220;14.480;2023-03-23T22:09:23;11.03;;;6.10;;
17890;SDS011;9071;48.220;14.480;2023-03-23T22:14:25;10.83;;;5.87;;
17890;SDS011;9071;48.220;14.480;2023-03-23T22:19:28;10.90;;;6.17;;
17890;SDS011;9071;48.220;14.480;2023-03-23T22:24:31;12.10;;;6.90;;
17890;SDS011;9071;48.220;14.480;2023-03-23T22:29:34;13.87;;;7.17;;
17890;SDS011;9071;48.220;14.480;2023-03-23T22:34:36;12.27;;;6.70;;
17890;SDS011;9071;48.220;14.480;2023-03-23T22:39:39;12.20;;;6.43;;
17890;SDS011;9071;48.220;14.480;2023-03-23T22:44:42;10.30;;;6.10;;
17890;SDS011;9071;48.220;14.480;2023-03-23T22:49:44;11.87;;;6.77;;
17890;SDS011;9071;48.220;14.480;2023-03-23T22:54:47;14.20;;;6.93;;
17890;SDS011;9071;48.220;14.480;2023-03-23T22:59:50;11.87;;;6.63;;
17890;SDS011;9071;48.220;14.480;2023-03-23T23:04:52;8.17;;;6.27;;
17890;SDS011;9071;48.220;14.480;2023-03-23T23:09:56;10.10;;;6.37;;
17890;SDS011;9071;48.220;14.480;2023-03-23T23:14:58;15.00;;;6.87;;
17890;SDS011;9071;48.220;14.480;2023-03-23T23:20:00;11.47;;;6.77;;
17890;SDS011;9071;48.220;14.480;2023-03-23T23:25:06;15.90;;;7.77;;
17890;SDS011;9071;48.220;14.480;2023-03-23T23:30:10;11.27;;;6.87;;
17890;SDS011;9071;48.220;14.480;2023-03-23T23:35:13;10.53;;;7.20;;
17890;SDS011;9071;48.220;14.480;2023-03-23T23:40:17;11.03;;;6.67;;
17890;SDS011;9071;48.220;14.480;2023-03-23T23:45:20;12.00;;;6.80;;
17890;SDS011;9071;48.220;14.480;2023-03-23T23:50:22;13.57;;;7.47;;
17890;SDS011;9071;48.220;14.480;2023-03-23T23:55:26;11.67;;;7.67;;
